sensor_id;sensor_type;location;lat;lon;timestamp;P1;durP1;ratioP1;P2;durP2;ratioP2
35312;SDS011;21425;50.454;30.466;2024-01-06T00:01:40;39.90;;;12.00;;
35312;SDS011;21425;50.454;30.466;2024-01-06T00:04:06;28.70;;;10.10;;
35312;SDS011;21425;50.454;30.466;2024-01-06T00:06:32;29.13;;;11.07;;
35312;SDS011;21425;50.454;30.466;2024-01-06T00:08:58;32.70;;;10.60;;
35312;SDS011;21425;50.454;30.466;2024-01-06T00:11:24;33.17;;;12.57;;
35312;SDS011;21425;50.454;30.466;2024-01-06T00:13:50;35.45;;;11.85;;
35312;SDS011;21425;50.454;30.466;2024-01-06T00:16:16;40.55;;;13.07;;
35312;SDS011;21425;50.454;30.466;2024-01-06T00:18:43;40.22;;;15.07;;
35312;SDS011;21425;50.454;30.466;2024-01-06T00:21:09;37.17;;;14.15;;
35312;SDS011;21425;50.454;30.466;2024-01-06T00:23:35;41.38;;;13.65;;
35312;SDS011;21425;50.454;30.466;2024-01-06T00:26:03;41.78;;;13.35;;
35312;SDS011;21425;50.454;30.466;2024-01-06T00:28:29;36.38;;;12.82;;
35312;SDS011;21425;50.454;30.466;2024-01-06T00:30:55;34.08;;;12.90;;
35312;SDS011;21425;50.454;30.466;2024-01-06T00:33:20;42.95;;;14.60;;
35312;SDS011;21425;50.454;30.466;2024-01-06T00:35:46;33.45;;;13.15;;
35312;SDS011;21425;50.454;30.466;2024-01-06T00:38:12;35.70;;;12.75;;
35312;SDS011;21425;50.454;30.466;2024-01-06T00:40:38;40.50;;;12.52;;
35312;SDS011;21425;50.454;30.466;2024-01-06T00:43:04;32.63;;;13.45;;
35312;SDS011;21425;50.454;30.466;2024-01-06T00:45:29;33.95;;;12.02;;
35312;SDS011;21425;50.454;30.466;2024-01-06T00:47:56;42.75;;;12.85;;
35312;SDS011;21425;50.454;30.466;2024-01-06T00:50:22;35.15;;;11.63;;
35312;SDS011;21425;50.454;30.466;2024-01-06T00:52:48;33.53;;;11.98;;
35312;SDS011;21425;50.454;30.466;2024-01-06T00:55:17;30.70;;;11.13;;
35312;SDS011;21425;50.454;30.466;2024-01-06T00:57:43;27.83;;;10.73;;
35312;SDS011;21425;50.454;30.466;2024-01-06T01:00:09;31.77;;;10.63;;
35312;SDS011;21425;50.454;30.466;2024-01-06T01:02:35;30.98;;;9.90;;
35312;SDS011;21425;50.454;30.466;2024-01-06T01:05:00;35.72;;;10.27;;
35312;SDS011;21425;50.454;30.466;2024-01-06T01:07:26;26.50;;;8.15;;
35312;SDS011;21425;50.454;30.466;2024-01-06T01:09:52;17.83;;;6.38;;
35312;SDS011;21425;50.454;30.466;2024-01-06T01:12:18;22.08;;;8.52;;
35312;SDS011;21425;50.454;30.466;2024-01-06T01:14:44;31.48;;;8.27;;
35312;SDS011;21425;50.454;30.466;2024-01-06T01:17:10;23.35;;;7.38;;
35312;SDS011;21425;50.454;30.466;2024-01-06T01:19:35;26.23;;;9.35;;
35312;SDS011;21425;50.454;30.466;2024-01-06T01:22:01;21.90;;;8.27;;
35312;SDS011;21425;50.454;30.466;2024-01-06T01:24:27;19.30;;;8.07;;
35312;SDS011;21425;50.454;30.466;2024-01-06T01:26:53;22.35;;;8.13;;
35312;SDS011;21425;50.454;30.466;2024-01-06T01:29:19;18.70;;;7.38;;
35312;SDS011;21425;50.454;30.466;2024-01-06T01:31:45;23.88;;;8.27;;
35312;SDS011;21425;50.454;30.466;2024-01-06T01:34:11;20.33;;;7.35;;
35312;SDS011;21425;50.454;30.466;2024-01-06T01:36:37;21.05;;;8.40;;
35312;SDS011;21425;50.454;30.466;2024-01-06T01:39:03;13.45;;;5.25;;
35312;SDS011;21425;50.454;30.466;2024-01-06T01:41:29;23.23;;;6.75;;
35312;SDS011;21425;50.454;30.466;2024-01-06T01:43:55;14.82;;;5.13;;
35312;SDS011;21425;50.454;30.466;2024-01-06T01:46:26;17.38;;;7.55;;
35312;SDS011;21425;50.454;30.466;2024-01-06T01:48:56;13.88;;;5.55;;
35312;SDS011;21425;50.454;30.466;2024-01-06T01:51:22;12.07;;;5.50;;
35312;SDS011;21425;50.454;30.466;2024-01-06T01:53:49;14.40;;;6.32;;
35312;SDS011;21425;50.454;30.466;2024-01-06T01:56:15;18.27;;;5.90;;
35312;SDS011;21425;50.454;30.466;2024-01-06T01:58:41;19.20;;;6.05;;
35312;SDS011;21425;50.454;30.466;2024-01-06T02:01:07;21.48;;;7.28;;
35312;SDS011;21425;50.454;30.466;2024-01-06T02:03:34;29.27;;;8.52;;
35312;SDS011;21425;50.454;30.466;2024-01-06T02:06:00;23.17;;;7.28;;
35312;SDS011;21425;50.454;30.466;2024-01-06T02:08:26;37.72;;;9.52;;
35312;SDS011;21425;50.454;30.466;2024-01-06T02:10:54;25.67;;;8.25;;
35312;SDS011;21425;50.454;30.466;2024-01-06T02:13:21;32.22;;;9.32;;
35312;SDS011;21425;50.454;30.466;2024-01-06T02:15:47;21.70;;;7.32;;
35312;SDS011;21425;50.454;30.466;2024-01-06T02:18:13;18.15;;;6.57;;
35312;SDS011;21425;50.454;30.466;2024-01-06T02:20:40;21.20;;;7.78;;
35312;SDS011;21425;50.454;30.466;2024-01-06T02:23:09;21.15;;;7.15;;
35312;SDS011;21425;50.454;30.466;2024-01-06T02:25:35;13.57;;;6.43;;
35312;SDS011;21425;50.454;30.466;2024-01-06T02:28:01;17.00;;;5.88;;
35312;SDS011;21425;50.454;30.466;2024-01-06T02:30:26;14.98;;;5.30;;
35312;SDS011;21425;50.454;30.466;2024-01-06T02:32:52;11.30;;;5.30;;
35312;SDS011;21425;50.454;30.466;2024-01-06T02:35:19;17.40;;;6.70;;
35312;SDS011;21425;50.454;30.466;2024-01-06T02:37:45;18.70;;;6.35;;
35312;SDS011;21425;50.454;30.466;2024-01-06T02:40:11;17.08;;;6.95;;
35312;SDS011;21425;50.454;30.466;2024-01-06T02:42:38;19.60;;;6.75;;
35312;SDS011;21425;50.454;30.466;2024-01-06T02:45:04;17.00;;;5.80;;
35312;SDS011;21425;50.454;30.466;2024-01-06T02:47:30;12.68;;;5.88;;
35312;SDS011;21425;50.454;30.466;2024-01-06T02:49:55;18.20;;;6.13;;
35312;SDS011;21425;50.454;30.466;2024-01-06T02:52:21;19.67;;;6.03;;
35312;SDS011;21425;50.454;30.466;2024-01-06T02:54:48;20.08;;;6.75;;
35312;SDS011;21425;50.454;30.466;2024-01-06T02:57:13;17.25;;;7.13;;
35312;SDS011;21425;50.454;30.466;2024-01-06T02:59:39;16.92;;;5.55;;
35312;SDS011;21425;50.454;30.466;2024-01-06T03:02:06;16.60;;;5.97;;
35312;SDS011;21425;50.454;30.466;2024-01-06T03:04:32;13.77;;;5.07;;
35312;SDS011;21425;50.454;30.466;2024-01-06T03:06:58;12.80;;;5.75;;
35312;SDS011;21425;50.454;30.466;2024-01-06T03:09:24;19.00;;;7.47;;
35312;SDS011;21425;50.454;30.466;2024-01-06T03:11:50;14.68;;;5.95;;
35312;SDS011;21425;50.454;30.466;2024-01-06T03:14:16;17.60;;;6.53;;
35312;SDS011;21425;50.454;30.466;2024-01-06T03:16:42;18.95;;;5.95;;
35312;SDS011;21425;50.454;30.466;2024-01-06T03:19:07;16.60;;;5.72;;
35312;SDS011;21425;50.454;30.466;2024-01-06T03:21:33;14.95;;;5.55;;
35312;SDS011;21425;50.454;30.466;2024-01-06T03:23:59;15.48;;;4.97;;
35312;SDS011;21425;50.454;30.466;2024-01-06T03:26:25;14.40;;;4.90;;
35312;SDS011;21425;50.454;30.466;2024-01-06T03:28:51;10.65;;;4.50;;
35312;SDS011;21425;50.454;30.466;2024-01-06T03:31:17;10.80;;;4.78;;
35312;SDS011;21425;50.454;30.466;2024-01-06T03:33:43;14.00;;;4.72;;
35312;SDS011;21425;50.454;30.466;2024-01-06T03:36:09;14.13;;;5.30;;
35312;SDS011;21425;50.454;30.466;2024-01-06T03:38:37;9.20;;;4.60;;
35312;SDS011;21425;50.454;30.466;2024-01-06T03:41:03;9.90;;;4.32;;
35312;SDS011;21425;50.454;30.466;2024-01-06T03:43:29;8.13;;;3.78;;
35312;SDS011;21425;50.454;30.466;2024-01-06T03:45:55;12.80;;;4.38;;
35312;SDS011;21425;50.454;30.466;2024-01-06T03:48:22;20.40;;;6.22;;
35312;SDS011;21425;50.454;30.466;2024-01-06T03:50:48;13.45;;;4.88;;
35312;SDS011;21425;50.454;30.466;2024-01-06T03:53:14;17.42;;;6.15;;
35312;SDS011;21425;50.454;30.466;2024-01-06T03:55:40;15.93;;;5.28;;
35312;SDS011;21425;50.454;30.466;2024-01-06T03:58:05;15.98;;;5.60;;
35312;SDS011;21425;50.454;30.466;2024-01-06T04:00:31;16.35;;;5.78;;
35312;SDS011;21425;50.454;30.466;2024-01-06T04:02:57;12.10;;;4.85;;
35312;SDS011;21425;50.454;30.466;2024-01-06T04:05:22;15.25;;;6.28;;
35312;SDS011;21425;50.454;30.466;2024-01-06T04:07:48;12.30;;;4.60;;
35312;SDS011;21425;50.454;30.466;2024-01-06T04:10:14;13.13;;;4.18;;
35312;SDS011;21425;50.454;30.466;2024-01-06T04:12:40;16.00;;;4.32;;
35312;SDS011;21425;50.454;30.466;2024-01-06T04:15:06;11.63;;;5.35;;
35312;SDS011;21425;50.454;30.466;2024-01-06T04:17:32;20.80;;;6.20;;
35312;SDS011;21425;50.454;30.466;2024-01-06T04:19:58;27.63;;;7.05;;
35312;SDS011;21425;50.454;30.466;2024-01-06T04:22:24;14.15;;;5.68;;
35312;SDS011;21425;50.454;30.466;2024-01-06T04:24:49;14.45;;;5.25;;
35312;SDS011;21425;50.454;30.466;2024-01-06T04:27:16;13.95;;;5.78;;
35312;SDS011;21425;50.454;30.466;2024-01-06T04:29:43;16.05;;;5.10;;
35312;SDS011;21425;50.454;30.466;2024-01-06T04:32:08;10.32;;;5.57;;
35312;SDS011;21425;50.454;30.466;2024-01-06T04:34:34;12.18;;;4.32;;
35312;SDS011;21425;50.454;30.466;2024-01-06T04:37:00;8.68;;;4.50;;
35312;SDS011;21425;50.454;30.466;2024-01-06T04:39:26;11.95;;;4.82;;
35312;SDS011;21425;50.454;30.466;2024-01-06T04:41:52;15.82;;;4.72;;
35312;SDS011;21425;50.454;30.466;2024-01-06T04:44:20;12.25;;;5.13;;
35312;SDS011;21425;50.454;30.466;2024-01-06T04:46:46;12.98;;;4.90;;
35312;SDS011;21425;50.454;30.466;2024-01-06T04:49:12;10.52;;;4.03;;
35312;SDS011;21425;50.454;30.466;2024-01-06T04:51:37;12.50;;;4.72;;
35312;SDS011;21425;50.454;30.466;2024-01-06T04:54:03;15.20;;;4.50;;
35312;SDS011;21425;50.454;30.466;2024-01-06T04:56:29;15.00;;;5.18;;
35312;SDS011;21425;50.454;30.466;2024-01-06T04:58:55;13.73;;;5.72;;
35312;SDS011;21425;50.454;30.466;2024-01-06T05:01:22;13.45;;;5.05;;
35312;SDS011;21425;50.454;30.466;2024-01-06T05:03:49;16.35;;;5.78;;
35312;SDS011;21425;50.454;30.466;2024-01-06T05:06:15;13.32;;;5.78;;
35312;SDS011;21425;50.454;30.466;2024-01-06T05:08:40;16.50;;;6.20;;
35312;SDS011;21425;50.454;30.466;2024-01-06T05:11:10;15.90;;;5.55;;
35312;SDS011;21425;50.454;30.466;2024-01-06T05:13:37;19.40;;;7.15;;
35312;SDS011;21425;50.454;30.466;2024-01-06T05:16:02;15.63;;;6.15;;
35312;SDS011;21425;50.454;30.466;2024-01-06T05:18:28;26.33;;;6.68;;
35312;SDS011;21425;50.454;30.466;2024-01-06T05:20:54;25.15;;;8.63;;
35312;SDS011;21425;50.454;30.466;2024-01-06T05:23:21;15.30;;;6.10;;
35312;SDS011;21425;50.454;30.466;2024-01-06T05:25:47;23.63;;;8.70;;
35312;SDS011;21425;50.454;30.466;2024-01-06T05:28:12;23.38;;;8.00;;
35312;SDS011;21425;50.454;30.466;2024-01-06T05:30:38;17.65;;;6.47;;
35312;SDS011;21425;50.454;30.466;2024-01-06T05:33:04;17.92;;;6.55;;
35312;SDS011;21425;50.454;30.466;2024-01-06T05:35:30;18.83;;;5.93;;
35312;SDS011;21425;50.454;30.466;2024-01-06T05:37:56;12.27;;;5.20;;
35312;SDS011;21425;50.454;30.466;2024-01-06T05:40:22;12.55;;;5.20;;
35312;SDS011;21425;50.454;30.466;2024-01-06T05:42:48;14.13;;;6.25;;
35312;SDS011;21425;50.454;30.466;2024-01-06T05:45:14;10.77;;;4.88;;
35312;SDS011;21425;50.454;30.466;2024-01-06T05:47:40;15.93;;;4.97;;
35312;SDS011;21425;50.454;30.466;2024-01-06T05:50:05;12.98;;;4.32;;
35312;SDS011;21425;50.454;30.466;2024-01-06T05:52:35;14.13;;;5.13;;
35312;SDS011;21425;50.454;30.466;2024-01-06T05:55:00;9.68;;;4.63;;
35312;SDS011;21425;50.454;30.466;2024-01-06T05:57:26;15.45;;;4.95;;
35312;SDS011;21425;50.454;30.466;2024-01-06T05:59:52;12.50;;;4.32;;
35312;SDS011;21425;50.454;30.466;2024-01-06T06:02:17;12.25;;;4.60;;
35312;SDS011;21425;50.454;30.466;2024-01-06T06:04:43;12.25;;;4.60;;
35312;SDS011;21425;50.454;30.466;2024-01-06T06:07:09;11.73;;;4.93;;
35312;SDS011;21425;50.454;30.466;2024-01-06T06:09:35;14.65;;;4.88;;
35312;SDS011;21425;50.454;30.466;2024-01-06T06:12:02;9.35;;;4.40;;
35312;SDS011;21425;50.454;30.466;2024-01-06T06:14:28;12.05;;;4.80;;
35312;SDS011;21425;50.454;30.466;2024-01-06T06:16:54;9.75;;;4.43;;
35312;SDS011;21425;50.454;30.466;2024-01-06T06:19:20;13.77;;;4.82;;
35312;SDS011;21425;50.454;30.466;2024-01-06T06:21:46;10.65;;;3.80;;
35312;SDS011;21425;50.454;30.466;2024-01-06T06:24:12;10.20;;;4.15;;
35312;SDS011;21425;50.454;30.466;2024-01-06T06:26:38;8.43;;;4.30;;
35312;SDS011;21425;50.454;30.466;2024-01-06T06:29:04;12.57;;;4.60;;
35312;SDS011;21425;50.454;30.466;2024-01-06T06:31:30;17.33;;;4.28;;
35312;SDS011;21425;50.454;30.466;2024-01-06T06:33:56;17.80;;;5.72;;
35312;SDS011;21425;50.454;30.466;2024-01-06T06:36:22;13.75;;;5.40;;
35312;SDS011;21425;50.454;30.466;2024-01-06T06:38:47;13.32;;;5.60;;
35312;SDS011;21425;50.454;30.466;2024-01-06T06:41:13;18.75;;;4.50;;
35312;SDS011;21425;50.454;30.466;2024-01-06T06:43:39;11.30;;;4.47;;
35312;SDS011;21425;50.454;30.466;2024-01-06T06:46:05;11.32;;;4.75;;
35312;SDS011;21425;50.454;30.466;2024-01-06T06:48:30;11.13;;;5.05;;
35312;SDS011;21425;50.454;30.466;2024-01-06T06:50:56;14.13;;;4.90;;
35312;SDS011;21425;50.454;30.466;2024-01-06T06:53:22;18.55;;;5.60;;
35312;SDS011;21425;50.454;30.466;2024-01-06T06:55:47;13.27;;;5.07;;
35312;SDS011;21425;50.454;30.466;2024-01-06T06:58:13;12.05;;;5.30;;
35312;SDS011;21425;50.454;30.466;2024-01-06T07:00:39;17.83;;;5.97;;
35312;SDS011;21425;50.454;30.466;2024-01-06T07:03:04;18.10;;;6.07;;
35312;SDS011;21425;50.454;30.466;2024-01-06T07:05:30;19.15;;;5.78;;
35312;SDS011;21425;50.454;30.466;2024-01-06T07:07:56;16.20;;;5.32;;
35312;SDS011;21425;50.454;30.466;2024-01-06T07:10:22;16.30;;;5.70;;
35312;SDS011;21425;50.454;30.466;2024-01-06T07:12:48;25.40;;;6.35;;
35312;SDS011;21425;50.454;30.466;2024-01-06T07:15:13;20.25;;;6.28;;
35312;SDS011;21425;50.454;30.466;2024-01-06T07:17:39;19.88;;;7.22;;
35312;SDS011;21425;50.454;30.466;2024-01-06T07:20:08;22.50;;;6.43;;
35312;SDS011;21425;50.454;30.466;2024-01-06T07:22:34;26.48;;;6.72;;
35312;SDS011;21425;50.454;30.466;2024-01-06T07:25:00;18.45;;;7.03;;
35312;SDS011;21425;50.454;30.466;2024-01-06T07:27:26;28.73;;;8.13;;
35312;SDS011;21425;50.454;30.466;2024-01-06T07:29:52;31.17;;;9.30;;
35312;SDS011;21425;50.454;30.466;2024-01-06T07:32:17;33.22;;;10.43;;
35312;SDS011;21425;50.454;30.466;2024-01-06T07:34:43;28.00;;;10.35;;
35312;SDS011;21425;50.454;30.466;2024-01-06T07:37:09;33.15;;;10.88;;
35312;SDS011;21425;50.454;30.466;2024-01-06T07:39:35;26.08;;;10.88;;
35312;SDS011;21425;50.454;30.466;2024-01-06T07:42:01;33.78;;;10.55;;
35312;SDS011;21425;50.454;30.466;2024-01-06T07:44:28;32.55;;;10.65;;
35312;SDS011;21425;50.454;30.466;2024-01-06T07:46:53;23.27;;;9.55;;
35312;SDS011;21425;50.454;30.466;2024-01-06T07:49:19;19.60;;;7.35;;
35312;SDS011;21425;50.454;30.466;2024-01-06T07:51:45;21.65;;;7.35;;
35312;SDS011;21425;50.454;30.466;2024-01-06T07:54:11;19.55;;;6.68;;
35312;SDS011;21425;50.454;30.466;2024-01-06T07:56:37;18.10;;;6.63;;
35312;SDS011;21425;50.454;30.466;2024-01-06T07:59:04;20.30;;;6.57;;
35312;SDS011;21425;50.454;30.466;2024-01-06T08:01:30;21.05;;;7.10;;
35312;SDS011;21425;50.454;30.466;2024-01-06T08:03:56;20.42;;;7.03;;
35312;SDS011;21425;50.454;30.466;2024-01-06T08:06:22;16.42;;;6.65;;
35312;SDS011;21425;50.454;30.466;2024-01-06T08:08:48;14.85;;;6.63;;
35312;SDS011;21425;50.454;30.466;2024-01-06T08:11:14;18.67;;;6.25;;
35312;SDS011;21425;50.454;30.466;2024-01-06T08:13:40;13.90;;;6.28;;
35312;SDS011;21425;50.454;30.466;2024-01-06T08:16:06;18.27;;;6.82;;
35312;SDS011;21425;50.454;30.466;2024-01-06T08:18:32;11.23;;;6.15;;
35312;SDS011;21425;50.454;30.466;2024-01-06T08:20:58;19.02;;;6.95;;
35312;SDS011;21425;50.454;30.466;2024-01-06T08:23:23;17.00;;;6.43;;
35312;SDS011;21425;50.454;30.466;2024-01-06T08:25:50;19.02;;;7.38;;
35312;SDS011;21425;50.454;30.466;2024-01-06T08:28:16;23.98;;;7.95;;
35312;SDS011;21425;50.454;30.466;2024-01-06T08:30:43;22.23;;;7.45;;
35312;SDS011;21425;50.454;30.466;2024-01-06T08:33:09;26.27;;;7.80;;
35312;SDS011;21425;50.454;30.466;2024-01-06T08:35:35;23.73;;;7.22;;
35312;SDS011;21425;50.454;30.466;2024-01-06T08:38:05;35.85;;;10.98;;
35312;SDS011;21425;50.454;30.466;2024-01-06T08:40:34;35.85;;;12.10;;
35312;SDS011;21425;50.454;30.466;2024-01-06T08:43:00;39.22;;;11.88;;
35312;SDS011;21425;50.454;30.466;2024-01-06T08:45:26;35.47;;;12.20;;
35312;SDS011;21425;50.454;30.466;2024-01-06T08:47:52;47.03;;;14.93;;
35312;SDS011;21425;50.454;30.466;2024-01-06T08:50:18;44.50;;;14.32;;
35312;SDS011;21425;50.454;30.466;2024-01-06T08:52:43;40.60;;;15.07;;
35312;SDS011;21425;50.454;30.466;2024-01-06T08:55:09;46.85;;;14.88;;
35312;SDS011;21425;50.454;30.466;2024-01-06T08:57:35;37.78;;;13.48;;
35312;SDS011;21425;50.454;30.466;2024-01-06T09:00:02;38.55;;;13.65;;
35312;SDS011;21425;50.454;30.466;2024-01-06T09:02:29;33.38;;;12.93;;
35312;SDS011;21425;50.454;30.466;2024-01-06T09:04:54;25.70;;;9.25;;
35312;SDS011;21425;50.454;30.466;2024-01-06T09:07:20;31.55;;;12.18;;
35312;SDS011;21425;50.454;30.466;2024-01-06T09:09:46;33.35;;;12.75;;
35312;SDS011;21425;50.454;30.466;2024-01-06T09:12:12;33.25;;;11.70;;
35312;SDS011;21425;50.454;30.466;2024-01-06T09:14:38;42.65;;;13.27;;
35312;SDS011;21425;50.454;30.466;2024-01-06T09:17:04;36.15;;;11.73;;
35312;SDS011;21425;50.454;30.466;2024-01-06T09:19:29;42.15;;;13.65;;
35312;SDS011;21425;50.454;30.466;2024-01-06T09:21:55;39.00;;;11.63;;
35312;SDS011;21425;50.454;30.466;2024-01-06T09:24:21;27.10;;;11.75;;
35312;SDS011;21425;50.454;30.466;2024-01-06T09:26:47;32.65;;;11.57;;
35312;SDS011;21425;50.454;30.466;2024-01-06T09:29:15;28.77;;;9.98;;
35312;SDS011;21425;50.454;30.466;2024-01-06T09:31:41;31.50;;;11.75;;
35312;SDS011;21425;50.454;30.466;2024-01-06T09:34:09;34.20;;;10.48;;
35312;SDS011;21425;50.454;30.466;2024-01-06T09:36:35;25.77;;;10.85;;
35312;SDS011;21425;50.454;30.466;2024-01-06T09:39:01;29.67;;;11.38;;
35312;SDS011;21425;50.454;30.466;2024-01-06T09:41:27;30.02;;;11.13;;
35312;SDS011;21425;50.454;30.466;2024-01-06T09:43:53;25.55;;;9.63;;
35312;SDS011;21425;50.454;30.466;2024-01-06T09:46:23;24.77;;;10.02;;
35312;SDS011;21425;50.454;30.466;2024-01-06T09:48:54;26.00;;;11.20;;
35312;SDS011;21425;50.454;30.466;2024-01-06T09:51:21;23.10;;;9.13;;
35312;SDS011;21425;50.454;30.466;2024-01-06T09:53:57;23.48;;;9.35;;
35312;SDS011;21425;50.454;30.466;2024-01-06T09:56:24;23.08;;;9.57;;
35312;SDS011;21425;50.454;30.466;2024-01-06T09:58:50;24.10;;;10.38;;
35312;SDS011;21425;50.454;30.466;2024-01-06T10:01:19;24.23;;;9.15;;
35312;SDS011;21425;50.454;30.466;2024-01-06T10:03:46;17.38;;;6.93;;
35312;SDS011;21425;50.454;30.466;2024-01-06T10:06:15;15.90;;;6.97;;
35312;SDS011;21425;50.454;30.466;2024-01-06T10:08:47;19.67;;;7.57;;
35312;SDS011;21425;50.454;30.466;2024-01-06T10:11:13;21.05;;;8.10;;
35312;SDS011;21425;50.454;30.466;2024-01-06T10:13:39;20.80;;;8.70;;
35312;SDS011;21425;50.454;30.466;2024-01-06T10:16:05;21.73;;;9.85;;
35312;SDS011;21425;50.454;30.466;2024-01-06T10:18:32;26.00;;;9.40;;
35312;SDS011;21425;50.454;30.466;2024-01-06T10:21:00;25.00;;;9.35;;
35312;SDS011;21425;50.454;30.466;2024-01-06T10:23:28;23.77;;;8.93;;
35312;SDS011;21425;50.454;30.466;2024-01-06T10:25:55;21.27;;;8.45;;
35312;SDS011;21425;50.454;30.466;2024-01-06T10:28:21;28.38;;;10.77;;
35312;SDS011;21425;50.454;30.466;2024-01-06T10:30:48;23.75;;;9.65;;
35312;SDS011;21425;50.454;30.466;2024-01-06T10:33:16;31.25;;;12.40;;
35312;SDS011;21425;50.454;30.466;2024-01-06T10:35:42;26.80;;;11.98;;
35312;SDS011;21425;50.454;30.466;2024-01-06T10:38:07;36.13;;;12.93;;
35312;SDS011;21425;50.454;30.466;2024-01-06T10:40:33;37.75;;;13.55;;
35312;SDS011;21425;50.454;30.466;2024-01-06T10:42:59;25.35;;;10.65;;
35312;SDS011;21425;50.454;30.466;2024-01-06T10:45:26;24.65;;;10.80;;
35312;SDS011;21425;50.454;30.466;2024-01-06T10:47:53;31.80;;;11.02;;
35312;SDS011;21425;50.454;30.466;2024-01-06T10:50:20;28.30;;;11.68;;
35312;SDS011;21425;50.454;30.466;2024-01-06T10:52:47;34.65;;;10.75;;
35312;SDS011;21425;50.454;30.466;2024-01-06T10:55:15;25.85;;;10.15;;
35312;SDS011;21425;50.454;30.466;2024-01-06T10:57:45;36.30;;;13.88;;
35312;SDS011;21425;50.454;30.466;2024-01-06T11:00:11;37.45;;;14.48;;
35312;SDS011;21425;50.454;30.466;2024-01-06T11:02:39;45.80;;;15.52;;
35312;SDS011;21425;50.454;30.466;2024-01-06T11:05:04;37.33;;;15.15;;
35312;SDS011;21425;50.454;30.466;2024-01-06T11:07:32;35.15;;;13.50;;
35312;SDS011;21425;50.454;30.466;2024-01-06T11:10:03;24.67;;;10.98;;
35312;SDS011;21425;50.454;30.466;2024-01-06T11:12:34;27.17;;;11.38;;
35312;SDS011;21425;50.454;30.466;2024-01-06T11:15:00;32.85;;;12.27;;
35312;SDS011;21425;50.454;30.466;2024-01-06T11:20:20;35.88;;;13.45;;
35312;SDS011;21425;50.454;30.466;2024-01-06T11:22:46;32.42;;;13.57;;
35312;SDS011;21425;50.454;30.466;2024-01-06T11:25:13;30.77;;;12.55;;
35312;SDS011;21425;50.454;30.466;2024-01-06T11:27:41;42.53;;;13.77;;
35312;SDS011;21425;50.454;30.466;2024-01-06T11:30:11;38.95;;;13.98;;
35312;SDS011;21425;50.454;30.466;2024-01-06T11:32:44;33.17;;;12.95;;
35312;SDS011;21425;50.454;30.466;2024-01-06T11:35:12;37.42;;;12.25;;
35312;SDS011;21425;50.454;30.466;2024-01-06T11:43:03;29.05;;;10.70;;
35312;SDS011;21425;50.454;30.466;2024-01-06T11:45:37;26.77;;;10.73;;
35312;SDS011;21425;50.454;30.466;2024-01-06T11:50:37;24.00;;;10.50;;
35312;SDS011;21425;50.454;30.466;2024-01-06T11:53:04;27.17;;;10.90;;
35312;SDS011;21425;50.454;30.466;2024-01-06T11:55:30;24.75;;;10.95;;
35312;SDS011;21425;50.454;30.466;2024-01-06T11:58:00;28.58;;;11.05;;
35312;SDS011;21425;50.454;30.466;2024-01-06T12:00:30;32.65;;;12.45;;
35312;SDS011;21425;50.454;30.466;2024-01-06T12:02:57;30.60;;;12.68;;
35312;SDS011;21425;50.454;30.466;2024-01-06T12:05:24;38.30;;;13.00;;
35312;SDS011;21425;50.454;30.466;2024-01-06T12:07:58;40.85;;;15.95;;
35312;SDS011;21425;50.454;30.466;2024-01-06T12:10:26;36.40;;;15.32;;
35312;SDS011;21425;50.454;30.466;2024-01-06T12:12:59;41.42;;;14.98;;
35312;SDS011;21425;50.454;30.466;2024-01-06T12:15:29;43.30;;;15.27;;
35312;SDS011;21425;50.454;30.466;2024-01-06T12:17:57;40.30;;;14.15;;
35312;SDS011;21425;50.454;30.466;2024-01-06T12:20:23;37.53;;;15.25;;
35312;SDS011;21425;50.454;30.466;2024-01-06T12:22:52;40.05;;;15.43;;
35312;SDS011;21425;50.454;30.466;2024-01-06T12:25:20;48.35;;;16.13;;
35312;SDS011;21425;50.454;30.466;2024-01-06T12:27:47;42.20;;;17.05;;
35312;SDS011;21425;50.454;30.466;2024-01-06T12:30:14;50.08;;;18.20;;
35312;SDS011;21425;50.454;30.466;2024-01-06T12:32:42;50.95;;;17.58;;
35312;SDS011;21425;50.454;30.466;2024-01-06T12:35:08;60.38;;;21.00;;
35312;SDS011;21425;50.454;30.466;2024-01-06T12:37:35;77.10;;;24.90;;
35312;SDS011;21425;50.454;30.466;2024-01-06T12:40:01;81.53;;;25.13;;
35312;SDS011;21425;50.454;30.466;2024-01-06T12:42:26;66.75;;;20.90;;
35312;SDS011;21425;50.454;30.466;2024-01-06T12:44:52;63.60;;;21.23;;
35312;SDS011;21425;50.454;30.466;2024-01-06T12:47:18;54.30;;;19.77;;
35312;SDS011;21425;50.454;30.466;2024-01-06T12:49:44;59.15;;;18.98;;
35312;SDS011;21425;50.454;30.466;2024-01-06T12:52:11;58.28;;;20.00;;
35312;SDS011;21425;50.454;30.466;2024-01-06T12:54:38;62.60;;;20.00;;
35312;SDS011;21425;50.454;30.466;2024-01-06T12:57:07;55.50;;;20.25;;
35312;SDS011;21425;50.454;30.466;2024-01-06T12:59:32;49.72;;;18.65;;
35312;SDS011;21425;50.454;30.466;2024-01-06T13:01:58;46.30;;;16.80;;
35312;SDS011;21425;50.454;30.466;2024-01-06T13:04:24;38.47;;;14.55;;
35312;SDS011;21425;50.454;30.466;2024-01-06T13:06:49;40.95;;;16.08;;
35312;SDS011;21425;50.454;30.466;2024-01-06T13:09:15;42.80;;;15.85;;
35312;SDS011;21425;50.454;30.466;2024-01-06T13:11:41;37.63;;;15.05;;
35312;SDS011;21425;50.454;30.466;2024-01-06T13:14:10;38.08;;;16.08;;
35312;SDS011;21425;50.454;30.466;2024-01-06T13:16:36;30.55;;;14.05;;
35312;SDS011;21425;50.454;30.466;2024-01-06T13:19:02;34.67;;;13.57;;
35312;SDS011;21425;50.454;30.466;2024-01-06T13:21:29;29.38;;;13.15;;
35312;SDS011;21425;50.454;30.466;2024-01-06T13:23:55;31.13;;;12.63;;
35312;SDS011;21425;50.454;30.466;2024-01-06T13:26:26;35.58;;;12.88;;
35312;SDS011;21425;50.454;30.466;2024-01-06T13:28:53;33.50;;;14.02;;
35312;SDS011;21425;50.454;30.466;2024-01-06T13:31:19;28.55;;;13.40;;
35312;SDS011;21425;50.454;30.466;2024-01-06T13:33:45;28.80;;;11.88;;
35312;SDS011;21425;50.454;30.466;2024-01-06T13:36:11;24.33;;;12.30;;
35312;SDS011;21425;50.454;30.466;2024-01-06T13:38:37;27.92;;;13.00;;
35312;SDS011;21425;50.454;30.466;2024-01-06T13:41:03;26.10;;;12.27;;
35312;SDS011;21425;50.454;30.466;2024-01-06T13:43:29;29.23;;;11.57;;
35312;SDS011;21425;50.454;30.466;2024-01-06T13:45:56;27.48;;;11.52;;
35312;SDS011;21425;50.454;30.466;2024-01-06T13:48:22;30.90;;;12.82;;
35312;SDS011;21425;50.454;30.466;2024-01-06T13:50:48;27.02;;;11.93;;
35312;SDS011;21425;50.454;30.466;2024-01-06T13:53:14;29.88;;;12.80;;
35312;SDS011;21425;50.454;30.466;2024-01-06T13:55:40;26.08;;;11.75;;
35312;SDS011;21425;50.454;30.466;2024-01-06T13:58:06;29.75;;;12.60;;
35312;SDS011;21425;50.454;30.466;2024-01-06T14:00:34;31.17;;;13.00;;
35312;SDS011;21425;50.454;30.466;2024-01-06T14:03:00;31.33;;;14.43;;
35312;SDS011;21425;50.454;30.466;2024-01-06T14:05:26;34.42;;;14.73;;
35312;SDS011;21425;50.454;30.466;2024-01-06T14:07:52;35.90;;;15.60;;
35312;SDS011;21425;50.454;30.466;2024-01-06T14:10:18;32.25;;;15.20;;
35312;SDS011;21425;50.454;30.466;2024-01-06T14:12:44;34.03;;;14.90;;
35312;SDS011;21425;50.454;30.466;2024-01-06T14:15:10;34.88;;;15.23;;
35312;SDS011;21425;50.454;30.466;2024-01-06T14:17:37;32.03;;;14.45;;
35312;SDS011;21425;50.454;30.466;2024-01-06T14:20:04;31.80;;;14.23;;
35312;SDS011;21425;50.454;30.466;2024-01-06T14:22:30;28.75;;;13.15;;